sensor_id;sensor_type;location;lat;lon;timestamp;P1;durP1;ratioP1;P2;durP2;ratioP2
9821;SDS011;4950;46.042;14.472;2023-05-20T00:00:21;16.33;;;11.75;;
9821;SDS011;4950;46.042;14.472;2023-05-20T00:02:47;17.92;;;12.02;;
9821;SDS011;4950;46.042;14.472;2023-05-20T00:05:14;16.35;;;10.93;;
9821;SDS011;4950;46.042;14.472;2023-05-20T00:07:41;18.58;;;12.50;;
9821;SDS011;4950;46.042;14.472;2023-05-20T00:10:09;19.35;;;12.60;;
9821;SDS011;4950;46.042;14.472;2023-05-20T00:12:38;18.33;;;12.93;;
9821;SDS011;4950;46.042;14.472;2023-05-20T00:15:05;21.00;;;13.17;;
9821;SDS011;4950;46.042;14.472;2023-05-20T00:17:32;17.63;;;12.65;;
9821;SDS011;4950;46.042;14.472;2023-05-20T00:19:59;18.10;;;12.30;;
9821;SDS011;4950;46.042;14.472;2023-05-20T00:22:25;20.75;;;14.77;;
9821;SDS011;4950;46.042;14.472;2023-05-20T00:24:52;19.58;;;13.38;;
9821;SDS011;4950;46.042;14.472;2023-05-20T00:27:18;18.73;;;12.77;;
9821;SDS011;4950;46.042;14.472;2023-05-20T00:29:46;19.30;;;12.90;;
9821;SDS011;4950;46.042;14.472;2023-05-20T00:32:13;18.25;;;13.25;;
9821;SDS011;4950;46.042;14.472;2023-05-20T00:34:41;19.60;;;13.05;;
9821;SDS011;4950;46.042;14.472;2023-05-20T00:37:08;19.95;;;13.70;;
9821;SDS011;4950;46.042;14.472;2023-05-20T00:39:34;19.80;;;12.75;;
9821;SDS011;4950;46.042;14.472;2023-05-20T00:42:01;19.75;;;13.20;;
9821;SDS011;4950;46.042;14.472;2023-05-20T00:44:27;16.45;;;11.98;;
9821;SDS011;4950;46.042;14.472;2023-05-20T00:46:56;17.33;;;12.40;;
9821;SDS011;4950;46.042;14.472;2023-05-20T00:49:22;18.65;;;12.93;;
9821;SDS011;4950;46.042;14.472;2023-05-20T00:51:49;17.80;;;13.38;;
9821;SDS011;4950;46.042;14.472;2023-05-20T00:54:16;20.63;;;15.32;;
9821;SDS011;4950;46.042;14.472;2023-05-20T00:56:42;19.80;;;14.85;;
9821;SDS011;4950;46.042;14.472;2023-05-20T00:59:09;17.98;;;13.00;;
9821;SDS011;4950;46.042;14.472;2023-05-20T01:01:37;18.83;;;13.68;;
9821;SDS011;4950;46.042;14.472;2023-05-20T01:04:04;21.85;;;15.07;;
9821;SDS011;4950;46.042;14.472;2023-05-20T01:06:31;19.40;;;14.30;;
9821;SDS011;4950;46.042;14.472;2023-05-20T01:08:58;19.77;;;14.50;;
9821;SDS011;4950;46.042;14.472;2023-05-20T01:11:25;22.35;;;14.73;;
9821;SDS011;4950;46.042;14.472;2023-05-20T01:13:56;21.92;;;15.68;;
9821;SDS011;4950;46.042;14.472;2023-05-20T01:16:26;19.80;;;13.85;;
9821;SDS011;4950;46.042;14.472;2023-05-20T01:18:58;19.13;;;14.15;;
9821;SDS011;4950;46.042;14.472;2023-05-20T01:21:28;20.90;;;14.23;;
9821;SDS011;4950;46.042;14.472;2023-05-20T01:23:57;21.05;;;14.55;;
9821;SDS011;4950;46.042;14.472;2023-05-20T01:26:25;16.10;;;12.32;;
9821;SDS011;4950;46.042;14.472;2023-05-20T01:28:52;21.65;;;14.05;;
9821;SDS011;4950;46.042;14.472;2023-05-20T01:31:22;18.33;;;13.43;;
9821;SDS011;4950;46.042;14.472;2023-05-20T01:33:53;21.02;;;13.98;;
9821;SDS011;4950;46.042;14.472;2023-05-20T01:36:22;18.92;;;13.88;;
9821;SDS011;4950;46.042;14.472;2023-05-20T01:38:49;20.00;;;14.15;;
9821;SDS011;4950;46.042;14.472;2023-05-20T01:41:17;21.17;;;14.65;;
9821;SDS011;4950;46.042;14.472;2023-05-20T01:43:45;19.60;;;14.23;;
9821;SDS011;4950;46.042;14.472;2023-05-20T01:46:13;19.38;;;14.02;;
9821;SDS011;4950;46.042;14.472;2023-05-20T01:48:40;19.83;;;14.05;;
9821;SDS011;4950;46.042;14.472;2023-05-20T01:51:07;18.33;;;13.85;;
9821;SDS011;4950;46.042;14.472;2023-05-20T01:53:33;18.70;;;13.50;;
9821;SDS011;4950;46.042;14.472;2023-05-20T01:56:00;19.67;;;14.30;;
9821;SDS011;4950;46.042;14.472;2023-05-20T01:58:28;18.95;;;13.32;;
9821;SDS011;4950;46.042;14.472;2023-05-20T02:00:54;18.10;;;13.90;;
9821;SDS011;4950;46.042;14.472;2023-05-20T02:03:21;22.23;;;15.85;;
9821;SDS011;4950;46.042;14.472;2023-05-20T02:05:48;22.20;;;14.43;;
9821;SDS011;4950;46.042;14.472;2023-05-20T02:08:14;19.35;;;12.80;;
9821;SDS011;4950;46.042;14.472;2023-05-20T02:10:41;21.65;;;15.05;;
9821;SDS011;4950;46.042;14.472;2023-05-20T02:13:08;21.08;;;15.23;;
9821;SDS011;4950;46.042;14.472;2023-05-20T02:15:39;18.15;;;13.68;;
9821;SDS011;4950;46.042;14.472;2023-05-20T02:18:06;19.65;;;14.20;;
9821;SDS011;4950;46.042;14.472;2023-05-20T02:20:34;21.77;;;14.73;;
9821;SDS011;4950;46.042;14.472;2023-05-20T02:23:00;20.95;;;14.23;;
9821;SDS011;4950;46.042;14.472;2023-05-20T02:25:29;18.75;;;14.60;;
9821;SDS011;4950;46.042;14.472;2023-05-20T02:27:56;19.95;;;13.48;;
9821;SDS011;4950;46.042;14.472;2023-05-20T02:30:22;20.83;;;12.90;;
9821;SDS011;4950;46.042;14.472;2023-05-20T02:32:51;20.13;;;15.20;;
9821;SDS011;4950;46.042;14.472;2023-05-20T02:35:17;21.50;;;14.73;;
9821;SDS011;4950;46.042;14.472;2023-05-20T02:37:44;19.80;;;14.18;;
9821;SDS011;4950;46.042;14.472;2023-05-20T02:40:12;21.10;;;14.43;;
9821;SDS011;4950;46.042;14.472;2023-05-20T02:42:39;17.33;;;12.98;;
9821;SDS011;4950;46.042;14.472;2023-05-20T02:45:06;20.63;;;15.35;;
9821;SDS011;4950;46.042;14.472;2023-05-20T02:47:33;23.23;;;15.27;;
9821;SDS011;4950;46.042;14.472;2023-05-20T02:50:01;21.63;;;15.23;;
9821;SDS011;4950;46.042;14.472;2023-05-20T02:52:28;20.75;;;15.45;;
9821;SDS011;4950;46.042;14.472;2023-05-20T02:54:54;21.38;;;14.43;;
9821;SDS011;4950;46.042;14.472;2023-05-20T02:57:21;21.40;;;15.10;;
9821;SDS011;4950;46.042;14.472;2023-05-20T02:59:48;18.98;;;13.98;;
9821;SDS011;4950;46.042;14.472;2023-05-20T03:02:14;24.88;;;14.60;;
9821;SDS011;4950;46.042;14.472;2023-05-20T03:04:41;19.15;;;13.88;;
9821;SDS011;4950;46.042;14.472;2023-05-20T03:07:11;21.17;;;14.30;;
9821;SDS011;4950;46.042;14.472;2023-05-20T03:09:38;19.98;;;14.88;;
9821;SDS011;4950;46.042;14.472;2023-05-20T03:12:05;21.50;;;13.35;;
9821;SDS011;4950;46.042;14.472;2023-05-20T03:14:32;19.65;;;14.02;;
9821;SDS011;4950;46.042;14.472;2023-05-20T03:16:58;18.23;;;13.57;;
9821;SDS011;4950;46.042;14.472;2023-05-20T03:19:25;19.90;;;14.02;;
9821;SDS011;4950;46.042;14.472;2023-05-20T03:21:51;17.67;;;13.10;;
9821;SDS011;4950;46.042;14.472;2023-05-20T03:24:19;19.65;;;14.68;;
9821;SDS011;4950;46.042;14.472;2023-05-20T03:26:47;17.52;;;13.18;;
9821;SDS011;4950;46.042;14.472;2023-05-20T03:29:15;19.55;;;13.70;;
9821;SDS011;4950;46.042;14.472;2023-05-20T03:31:42;18.85;;;13.85;;
9821;SDS011;4950;46.042;14.472;2023-05-20T03:34:09;19.27;;;13.18;;
9821;SDS011;4950;46.042;14.472;2023-05-20T03:36:35;23.55;;;14.98;;
9821;SDS011;4950;46.042;14.472;2023-05-20T03:39:02;20.67;;;13.82;;
9821;SDS011;4950;46.042;14.472;2023-05-20T03:41:30;20.58;;;14.57;;
9821;SDS011;4950;46.042;14.472;2023-05-20T03:43:57;18.88;;;13.63;;
9821;SDS011;4950;46.042;14.472;2023-05-20T03:46:23;18.45;;;13.65;;
9821;SDS011;4950;46.042;14.472;2023-05-20T03:48:50;20.73;;;14.10;;
9821;SDS011;4950;46.042;14.472;2023-05-20T03:51:16;17.85;;;13.13;;
9821;SDS011;4950;46.042;14.472;2023-05-20T03:53:43;18.25;;;13.52;;
9821;SDS011;4950;46.042;14.472;2023-05-20T03:56:10;16.83;;;12.68;;
9821;SDS011;4950;46.042;14.472;2023-05-20T03:58:38;18.85;;;13.15;;
9821;SDS011;4950;46.042;14.472;2023-05-20T04:01:04;19.93;;;12.40;;
9821;SDS011;4950;46.042;14.472;2023-05-20T04:03:31;21.90;;;13.73;;
9821;SDS011;4950;46.042;14.472;2023-05-20T04:05:58;18.73;;;14.00;;
9821;SDS011;4950;46.042;14.472;2023-05-20T04:08:24;20.30;;;14.02;;
9821;SDS011;4950;46.042;14.472;2023-05-20T04:10:54;20.67;;;13.50;;
9821;SDS011;4950;46.042;14.472;2023-05-20T04:13:21;19.27;;;12.98;;
9821;SDS011;4950;46.042;14.472;2023-05-20T04:15:51;21.45;;;14.50;;
9821;SDS011;4950;46.042;14.472;2023-05-20T04:18:17;19.80;;;14.02;;
9821;SDS011;4950;46.042;14.472;2023-05-20T04:20:44;18.83;;;13.18;;
9821;SDS011;4950;46.042;14.472;2023-05-20T04:23:11;18.55;;;13.88;;
9821;SDS011;4950;46.042;14.472;2023-05-20T04:25:37;21.27;;;13.77;;
9821;SDS011;4950;46.042;14.472;2023-05-20T04:28:05;19.88;;;14.35;;
9821;SDS011;4950;46.042;14.472;2023-05-20T04:30:31;20.33;;;14.23;;
9821;SDS011;4950;46.042;14.472;2023-05-20T04:33:00;17.73;;;13.57;;
9821;SDS011;4950;46.042;14.472;2023-05-20T04:35:28;20.40;;;13.85;;
9821;SDS011;4950;46.042;14.472;2023-05-20T04:37:54;19.65;;;14.75;;
9821;SDS011;4950;46.042;14.472;2023-05-20T04:40:21;20.42;;;14.65;;
9821;SDS011;4950;46.042;14.472;2023-05-20T04:42:47;18.58;;;14.23;;
9821;SDS011;4950;46.042;14.472;2023-05-20T04:45:15;18.08;;;12.98;;
9821;SDS011;4950;46.042;14.472;2023-05-20T04:47:42;17.15;;;12.32;;
9821;SDS011;4950;46.042;14.472;2023-05-20T04:50:11;18.38;;;12.60;;
9821;SDS011;4950;46.042;14.472;2023-05-20T04:52:38;19.33;;;13.38;;
9821;SDS011;4950;46.042;14.472;2023-05-20T04:55:06;19.00;;;13.50;;
9821;SDS011;4950;46.042;14.472;2023-05-20T04:57:34;18.85;;;14.02;;
9821;SDS011;4950;46.042;14.472;2023-05-20T05:00:03;17.92;;;13.32;;
9821;SDS011;4950;46.042;14.472;2023-05-20T05:02:31;21.48;;;13.20;;
9821;SDS011;4950;46.042;14.472;2023-05-20T05:04:58;19.45;;;13.35;;
9821;SDS011;4950;46.042;14.472;2023-05-20T05:07:26;17.42;;;12.68;;
9821;SDS011;4950;46.042;14.472;2023-05-20T05:09:53;16.02;;;12.80;;
9821;SDS011;4950;46.042;14.472;2023-05-20T05:12:19;21.35;;;14.63;;
9821;SDS011;4950;46.042;14.472;2023-05-20T05:14:46;20.83;;;14.02;;
9821;SDS011;4950;46.042;14.472;2023-05-20T05:17:12;18.40;;;14.02;;
9821;SDS011;4950;46.042;14.472;2023-05-20T05:19:39;21.40;;;14.57;;
9821;SDS011;4950;46.042;14.472;2023-05-20T05:22:05;22.23;;;15.75;;
9821;SDS011;4950;46.042;14.472;2023-05-20T05:24:33;18.85;;;12.93;;
9821;SDS011;4950;46.042;14.472;2023-05-20T05:27:00;17.58;;;13.13;;
9821;SDS011;4950;46.042;14.472;2023-05-20T05:29:26;17.55;;;12.18;;
9821;SDS011;4950;46.042;14.472;2023-05-20T05:31:53;20.95;;;11.90;;
9821;SDS011;4950;46.042;14.472;2023-05-20T05:34:20;16.45;;;11.73;;
9821;SDS011;4950;46.042;14.472;2023-05-20T05:36:46;17.27;;;11.63;;
9821;SDS011;4950;46.042;14.472;2023-05-20T05:39:13;15.70;;;11.65;;
9821;SDS011;4950;46.042;14.472;2023-05-20T05:41:41;17.05;;;11.55;;
9821;SDS011;4950;46.042;14.472;2023-05-20T05:44:07;15.55;;;10.90;;
9821;SDS011;4950;46.042;14.472;2023-05-20T05:46:34;13.98;;;10.25;;
9821;SDS011;4950;46.042;14.472;2023-05-20T05:49:00;16.25;;;11.20;;
9821;SDS011;4950;46.042;14.472;2023-05-20T05:51:27;12.63;;;9.70;;
9821;SDS011;4950;46.042;14.472;2023-05-20T05:53:54;20.90;;;11.77;;
9821;SDS011;4950;46.042;14.472;2023-05-20T05:56:21;17.73;;;12.68;;
9821;SDS011;4950;46.042;14.472;2023-05-20T05:58:49;16.83;;;11.77;;
9821;SDS011;4950;46.042;14.472;2023-05-20T06:01:15;17.25;;;12.85;;
9821;SDS011;4950;46.042;14.472;2023-05-20T06:03:42;15.43;;;11.52;;
9821;SDS011;4950;46.042;14.472;2023-05-20T06:06:09;14.80;;;11.43;;
9821;SDS011;4950;46.042;14.472;2023-05-20T06:08:35;19.15;;;12.32;;
9821;SDS011;4950;46.042;14.472;2023-05-20T06:11:02;19.27;;;13.52;;
9821;SDS011;4950;46.042;14.472;2023-05-20T06:13:28;18.83;;;13.02;;
9821;SDS011;4950;46.042;14.472;2023-05-20T06:15:56;17.55;;;12.82;;
9821;SDS011;4950;46.042;14.472;2023-05-20T06:18:23;20.02;;;13.07;;
9821;SDS011;4950;46.042;14.472;2023-05-20T06:20:53;16.15;;;12.10;;
9821;SDS011;4950;46.042;14.472;2023-05-20T06:23:20;20.73;;;14.32;;
9821;SDS011;4950;46.042;14.472;2023-05-20T06:25:47;20.35;;;14.05;;
9821;SDS011;4950;46.042;14.472;2023-05-20T06:28:13;19.73;;;13.25;;
9821;SDS011;4950;46.042;14.472;2023-05-20T06:30:40;19.88;;;13.50;;
9821;SDS011;4950;46.042;14.472;2023-05-20T06:33:08;18.80;;;12.73;;
9821;SDS011;4950;46.042;14.472;2023-05-20T06:35:35;19.90;;;14.40;;
9821;SDS011;4950;46.042;14.472;2023-05-20T06:38:02;21.25;;;14.40;;
9821;SDS011;4950;46.042;14.472;2023-05-20T06:40:28;23.98;;;15.88;;
9821;SDS011;4950;46.042;14.472;2023-05-20T06:42:55;24.85;;;16.15;;
9821;SDS011;4950;46.042;14.472;2023-05-20T06:45:21;19.58;;;14.38;;
9821;SDS011;4950;46.042;14.472;2023-05-20T06:47:48;23.52;;;15.38;;
9821;SDS011;4950;46.042;14.472;2023-05-20T06:50:16;21.75;;;14.55;;
9821;SDS011;4950;46.042;14.472;2023-05-20T06:52:43;23.17;;;16.02;;
9821;SDS011;4950;46.042;14.472;2023-05-20T06:55:09;20.33;;;15.25;;
9821;SDS011;4950;46.042;14.472;2023-05-20T06:57:36;21.40;;;14.40;;
9821;SDS011;4950;46.042;14.472;2023-05-20T07:00:03;19.20;;;13.73;;
9821;SDS011;4950;46.042;14.472;2023-05-20T07:02:32;19.17;;;15.25;;
9821;SDS011;4950;46.042;14.472;2023-05-20T07:04:58;18.52;;;14.15;;
9821;SDS011;4950;46.042;14.472;2023-05-20T07:07:26;20.60;;;14.63;;
9821;SDS011;4950;46.042;14.472;2023-05-20T07:09:53;19.27;;;13.48;;
9821;SDS011;4950;46.042;14.472;2023-05-20T07:12:20;17.40;;;13.38;;
9821;SDS011;4950;46.042;14.472;2023-05-20T07:14:46;18.70;;;13.00;;
9821;SDS011;4950;46.042;14.472;2023-05-20T07:17:13;16.25;;;12.88;;
9821;SDS011;4950;46.042;14.472;2023-05-20T07:19:39;16.42;;;12.68;;
9821;SDS011;4950;46.042;14.472;2023-05-20T07:22:06;19.98;;;13.60;;
9821;SDS011;4950;46.042;14.472;2023-05-20T07:24:35;18.15;;;12.75;;
9821;SDS011;4950;46.042;14.472;2023-05-20T07:27:02;17.25;;;13.45;;
9821;SDS011;4950;46.042;14.472;2023-05-20T07:29:30;19.40;;;13.38;;
9821;SDS011;4950;46.042;14.472;2023-05-20T07:31:56;17.48;;;13.85;;
9821;SDS011;4950;46.042;14.472;2023-05-20T07:34:23;16.33;;;12.90;;
9821;SDS011;4950;46.042;14.472;2023-05-20T07:36:50;16.83;;;12.63;;
9821;SDS011;4950;46.042;14.472;2023-05-20T07:39:17;14.95;;;12.05;;
9821;SDS011;4950;46.042;14.472;2023-05-20T07:41:45;20.90;;;14.57;;
9821;SDS011;4950;46.042;14.472;2023-05-20T07:44:11;16.58;;;12.65;;
9821;SDS011;4950;46.042;14.472;2023-05-20T07:46:38;20.10;;;12.82;;
9821;SDS011;4950;46.042;14.472;2023-05-20T07:49:06;19.92;;;11.82;;
9821;SDS011;4950;46.042;14.472;2023-05-20T07:51:33;17.92;;;13.73;;
9821;SDS011;4950;46.042;14.472;2023-05-20T07:54:00;20.17;;;13.55;;
9821;SDS011;4950;46.042;14.472;2023-05-20T07:56:26;18.63;;;13.13;;
9821;SDS011;4950;46.042;14.472;2023-05-20T07:58:55;20.33;;;13.85;;
9821;SDS011;4950;46.042;14.472;2023-05-20T08:01:23;19.10;;;14.85;;
9821;SDS011;4950;46.042;14.472;2023-05-20T08:03:50;16.25;;;13.63;;
9821;SDS011;4950;46.042;14.472;2023-05-20T08:06:17;17.77;;;13.52;;
9821;SDS011;4950;46.042;14.472;2023-05-20T08:08:44;18.75;;;14.20;;
9821;SDS011;4950;46.042;14.472;2023-05-20T08:11:11;18.42;;;15.00;;
9821;SDS011;4950;46.042;14.472;2023-05-20T08:13:38;18.38;;;13.93;;
9821;SDS011;4950;46.042;14.472;2023-05-20T08:16:07;16.60;;;13.27;;
9821;SDS011;4950;46.042;14.472;2023-05-20T08:18:34;19.90;;;12.97;;
9821;SDS011;4950;46.042;14.472;2023-05-20T08:21:01;15.80;;;12.63;;
9821;SDS011;4950;46.042;14.472;2023-05-20T08:23:28;18.80;;;13.50;;
9821;SDS011;4950;46.042;14.472;2023-05-20T08:25:55;18.67;;;12.77;;
9821;SDS011;4950;46.042;14.472;2023-05-20T08:28:25;18.80;;;13.20;;
9821;SDS011;4950;46.042;14.472;2023-05-20T08:30:52;20.52;;;14.00;;
9821;SDS011;4950;46.042;14.472;2023-05-20T08:33:20;19.83;;;14.38;;
9821;SDS011;4950;46.042;14.472;2023-05-20T08:35:47;20.17;;;12.27;;
9821;SDS011;4950;46.042;14.472;2023-05-20T08:38:14;16.92;;;12.77;;
9821;SDS011;4950;46.042;14.472;2023-05-20T08:40:41;17.70;;;13.38;;
9821;SDS011;4950;46.042;14.472;2023-05-20T08:43:07;16.40;;;12.07;;
9821;SDS011;4950;46.042;14.472;2023-05-20T08:45:35;15.45;;;11.60;;
9821;SDS011;4950;46.042;14.472;2023-05-20T08:48:03;15.55;;;11.75;;
9821;SDS011;4950;46.042;14.472;2023-05-20T08:50:32;19.05;;;11.15;;
9821;SDS011;4950;46.042;14.472;2023-05-20T08:52:58;12.80;;;9.43;;
9821;SDS011;4950;46.042;14.472;2023-05-20T08:55:25;11.75;;;9.93;;
9821;SDS011;4950;46.042;14.472;2023-05-20T08:58:09;14.45;;;9.65;;
9821;SDS011;4950;46.042;14.472;2023-05-20T09:00:35;13.18;;;9.43;;
9821;SDS011;4950;46.042;14.472;2023-05-20T09:03:02;13.20;;;9.55;;
9821;SDS011;4950;46.042;14.472;2023-05-20T09:05:29;13.18;;;9.20;;
9821;SDS011;4950;46.042;14.472;2023-05-20T09:08:04;11.50;;;9.10;;
9821;SDS011;4950;46.042;14.472;2023-05-20T09:10:32;10.27;;;7.82;;
9821;SDS011;4950;46.042;14.472;2023-05-20T09:12:59;10.82;;;8.30;;
9821;SDS011;4950;46.042;14.472;2023-05-20T09:15:26;12.70;;;8.07;;
9821;SDS011;4950;46.042;14.472;2023-05-20T09:17:53;17.25;;;8.18;;
9821;SDS011;4950;46.042;14.472;2023-05-20T09:20:20;11.98;;;7.85;;
9821;SDS011;4950;46.042;14.472;2023-05-20T09:22:49;12.90;;;8.15;;
9821;SDS011;4950;46.042;14.472;2023-05-20T09:25:19;15.65;;;7.90;;
9821;SDS011;4950;46.042;14.472;2023-05-20T09:27:45;12.43;;;8.20;;
9821;SDS011;4950;46.042;14.472;2023-05-20T09:30:12;11.60;;;7.97;;
9821;SDS011;4950;46.042;14.472;2023-05-20T09:32:38;13.10;;;9.13;;
9821;SDS011;4950;46.042;14.472;2023-05-20T09:35:05;13.82;;;8.05;;
9821;SDS011;4950;46.042;14.472;2023-05-20T09:37:33;14.63;;;7.60;;
9821;SDS011;4950;46.042;14.472;2023-05-20T09:40:02;10.03;;;7.60;;
9821;SDS011;4950;46.042;14.472;2023-05-20T09:45:00;8.98;;;6.95;;
9821;SDS011;4950;46.042;14.472;2023-05-20T09:47:28;13.60;;;7.05;;
9821;SDS011;4950;46.042;14.472;2023-05-20T09:49:55;12.80;;;7.47;;
9821;SDS011;4950;46.042;14.472;2023-05-20T09:52:23;11.23;;;7.38;;
9821;SDS011;4950;46.042;14.472;2023-05-20T09:54:52;9.10;;;7.05;;
9821;SDS011;4950;46.042;14.472;2023-05-20T09:57:21;11.63;;;7.10;;
9821;SDS011;4950;46.042;14.472;2023-05-20T09:59:49;28.58;;;8.68;;
9821;SDS011;4950;46.042;14.472;2023-05-20T10:02:17;9.25;;;6.90;;
9821;SDS011;4950;46.042;14.472;2023-05-20T10:04:46;12.25;;;6.80;;
9821;SDS011;4950;46.042;14.472;2023-05-20T10:07:30;9.93;;;6.65;;
9821;SDS011;4950;46.042;14.472;2023-05-20T10:10:15;8.82;;;6.30;;
9821;SDS011;4950;46.042;14.472;2023-05-20T10:12:54;11.30;;;6.72;;
9821;SDS011;4950;46.042;14.472;2023-05-20T10:15:35;8.90;;;6.80;;
9821;SDS011;4950;46.042;14.472;2023-05-20T10:18:10;7.97;;;6.32;;
9821;SDS011;4950;46.042;14.472;2023-05-20T10:20:45;10.05;;;6.80;;
9821;SDS011;4950;46.042;14.472;2023-05-20T10:23:19;10.03;;;7.13;;
9821;SDS011;4950;46.042;14.472;2023-05-20T10:25:50;8.40;;;6.13;;
9821;SDS011;4950;46.042;14.472;2023-05-20T10:28:26;9.77;;;6.28;;
9821;SDS011;4950;46.042;14.472;2023-05-20T10:30:56;8.65;;;6.38;;
9821;SDS011;4950;46.042;14.472;2023-05-20T10:33:24;12.98;;;6.93;;
9821;SDS011;4950;46.042;14.472;2023-05-20T10:35:52;11.15;;;6.85;;
9821;SDS011;4950;46.042;14.472;2023-05-20T10:38:19;9.85;;;6.05;;
9821;SDS011;4950;46.042;14.472;2023-05-20T10:40:46;10.68;;;6.68;;
9821;SDS011;4950;46.042;14.472;2023-05-20T10:43:13;10.57;;;6.45;;
9821;SDS011;4950;46.042;14.472;2023-05-20T10:45:47;9.70;;;6.28;;
9821;SDS011;4950;46.042;14.472;2023-05-20T10:48:26;8.77;;;6.13;;
9821;SDS011;4950;46.042;14.472;2023-05-20T10:50:53;8.63;;;6.47;;
9821;SDS011;4950;46.042;14.472;2023-05-20T10:53:22;14.93;;;7.43;;
9821;SDS011;4950;46.042;14.472;2023-05-20T10:55:50;8.35;;;6.25;;
9821;SDS011;4950;46.042;14.472;2023-05-20T11:00:46;11.60;;;7.35;;
9821;SDS011;4950;46.042;14.472;2023-05-20T11:03:13;10.83;;;6.87;;
9821;SDS011;4950;46.042;14.472;2023-05-20T11:08:10;14.77;;;6.82;;
9821;SDS011;4950;46.042;14.472;2023-05-20T11:10:37;9.38;;;6.47;;
9821;SDS011;4950;46.042;14.472;2023-05-20T11:13:04;11.05;;;6.15;;
9821;SDS011;4950;46.042;14.472;2023-05-20T11:15:32;10.27;;;6.63;;
9821;SDS011;4950;46.042;14.472;2023-05-20T11:18:00;12.45;;;7.28;;
9821;SDS011;4950;46.042;14.472;2023-05-20T11:20:29;10.93;;;7.35;;
9821;SDS011;4950;46.042;14.472;2023-05-20T11:23:00;9.52;;;6.93;;
9821;SDS011;4950;46.042;14.472;2023-05-20T11:25:28;10.02;;;6.85;;
9821;SDS011;4950;46.042;14.472;2023-05-20T11:27:55;10.55;;;8.15;;
9821;SDS011;4950;46.042;14.472;2023-05-20T11:30:21;10.63;;;8.02;;
9821;SDS011;4950;46.042;14.472;2023-05-20T11:32:55;11.00;;;7.00;;
9821;SDS011;4950;46.042;14.472;2023-05-20T11:35:22;16.10;;;8.07;;
9821;SDS011;4950;46.042;14.472;2023-05-20T11:37:54;12.43;;;7.95;;
9821;SDS011;4950;46.042;14.472;2023-05-20T11:40:27;12.77;;;7.82;;
9821;SDS011;4950;46.042;14.472;2023-05-20T11:42:54;12.07;;;6.90;;
9821;SDS011;4950;46.042;14.472;2023-05-20T11:45:21;9.18;;;6.95;;
9821;SDS011;4950;46.042;14.472;2023-05-20T11:47:58;10.43;;;6.95;;
9821;SDS011;4950;46.042;14.472;2023-05-20T11:50:26;12.23;;;7.53;;
9821;SDS011;4950;46.042;14.472;2023-05-20T11:52:58;10.07;;;6.75;;
9821;SDS011;4950;46.042;14.472;2023-05-20T11:55:27;10.27;;;7.85;;
9821;SDS011;4950;46.042;14.472;2023-05-20T11:57:54;10.00;;;6.80;;
9821;SDS011;4950;46.042;14.472;2023-05-20T12:00:21;9.52;;;7.78;;
9821;SDS011;4950;46.042;14.472;2023-05-20T12:02:49;12.35;;;8.75;;
9821;SDS011;4950;46.042;14.472;2023-05-20T12:05:17;9.35;;;7.00;;
9821;SDS011;4950;46.042;14.472;2023-05-20T12:07:44;9.82;;;7.10;;
9821;SDS011;4950;46.042;14.472;2023-05-20T12:10:10;12.77;;;7.63;;
9821;SDS011;4950;46.042;14.472;2023-05-20T12:12:39;8.35;;;6.18;;
9821;SDS011;4950;46.042;14.472;2023-05-20T12:15:06;9.57;;;7.33;;
9821;SDS011;4950;46.042;14.472;2023-05-20T12:17:34;14.93;;;6.80;;
9821;SDS011;4950;46.042;14.472;2023-05-20T12:20:11;12.55;;;7.78;;
9821;SDS011;4950;46.042;14.472;2023-05-20T12:22:39;11.45;;;7.15;;
9821;SDS011;4950;46.042;14.472;2023-05-20T12:25:06;12.48;;;7.32;;
9821;SDS011;4950;46.042;14.472;2023-05-20T12:27:33;11.90;;;6.97;;
9821;SDS011;4950;46.042;14.472;2023-05-20T12:30:01;11.05;;;7.47;;
9821;SDS011;4950;46.042;14.472;2023-05-20T12:32:27;9.95;;;7.22;;
9821;SDS011;4950;46.042;14.472;2023-05-20T12:34:54;12.80;;;7.68;;
9821;SDS011;4950;46.042;14.472;2023-05-20T12:37:20;11.32;;;7.47;;
9821;SDS011;4950;46.042;14.472;2023-05-20T12:39:47;12.02;;;7.75;;
9821;SDS011;4950;46.042;14.472;2023-05-20T12:42:14;10.75;;;7.72;;
9821;SDS011;4950;46.042;14.472;2023-05-20T12:44:40;11.13;;;7.20;;
9821;SDS011;4950;46.042;14.472;2023-05-20T12:47:08;10.60;;;7.25;;
9821;SDS011;4950;46.042;14.472;2023-05-20T12:49:35;11.52;;;7.47;;
9821;SDS011;4950;46.042;14.472;2023-05-20T12:52:02;14.65;;;7.72;;
9821;SDS011;4950;46.042;14.472;2023-05-20T12:54:29;9.65;;;7.30;;
9821;SDS011;4950;46.042;14.472;2023-05-20T12:56:55;10.18;;;6.75;;
9821;SDS011;4950;46.042;14.472;2023-05-20T12:59:22;11.00;;;6.90;;
9821;SDS011;4950;46.042;14.472;2023-05-20T13:01:49;8.63;;;6.95;;
9821;SDS011;4950;46.042;14.472;2023-05-20T13:04:17;10.80;;;6.85;;
9821;SDS011;4950;46.042;14.472;2023-05-20T13:06:46;9.77;;;6.83;;
9821;SDS011;4950;46.042;14.472;2023-05-20T13:09:13;9.05;;;7.03;;
9821;SDS011;4950;46.042;14.472;2023-05-20T13:11:39;10.35;;;7.03;;
9821;SDS011;4950;46.042;14.472;2023-05-20T13:14:06;10.90;;;7.18;;
9821;SDS011;4950;46.042;14.472;2023-05-20T13:16:33;9.13;;;6.85;;
9821;SDS011;4950;46.042;14.472;2023-05-20T13:18:59;10.93;;;6.90;;
9821;SDS011;4950;46.042;14.472;2023-05-20T13:21:27;10.95;;;6.53;;
9821;SDS011;4950;46.042;14.472;2023-05-20T13:23:54;12.40;;;7.33;;
9821;SDS011;4950;46.042;14.472;2023-05-20T13:26:20;16.27;;;6.90;;
9821;SDS011;4950;46.042;14.472;2023-05-20T13:28:47;10.45;;;6.72;;
9821;SDS011;4950;46.042;14.472;2023-05-20T13:31:14;11.00;;;6.80;;
9821;SDS011;4950;46.042;14.472;2023-05-20T13:33:40;11.05;;;6.63;;
9821;SDS011;4950;46.042;14.472;2023-05-20T13:36:07;13.68;;;6.65;;
9821;SDS011;4950;46.042;14.472;2023-05-20T13:38:35;11.70;;;6.53;;
9821;SDS011;4950;46.042;14.472;2023-05-20T13:41:02;11.90;;;8.43;;
9821;SDS011;4950;46.042;14.472;2023-05-20T13:43:29;16.42;;;8.88;;
9821;SDS011;4950;46.042;14.472;2023-05-20T13:45:57;13.37;;;9.10;;
9821;SDS011;4950;46.042;14.472;2023-05-20T13:48:23;10.57;;;8.43;;
9821;SDS011;4950;46.042;14.472;2023-05-20T13:50:50;12.32;;;9.15;;
9821;SDS011;4950;46.042;14.472;2023-05-20T13:53:17;14.77;;;8.93;;
9821;SDS011;4950;46.042;14.472;2023-05-20T13:55:45;13.65;;;8.88;;
9821;SDS011;4950;46.042;14.472;2023-05-20T13:58:11;10.75;;;8.70;;
9821;SDS011;4950;46.042;14.472;2023-05-20T14:00:38;11.23;;;7.78;;
9821;SDS011;4950;46.042;14.472;2023-05-20T14:03:04;13.20;;;8.15;;
9821;SDS011;4950;46.042;14.472;2023-05-20T14:05:33;9.88;;;7.10;;
9821;SDS011;4950;46.042;14.472;2023-05-20T14:08:00;14.32;;;8.05;;
9821;SDS011;4950;46.042;14.472;2023-05-20T14:10:27;16.30;;;7.38;;
9821;SDS011;4950;46.042;14.472;2023-05-20T14:12:56;11.20;;;7.00;;
9821;SDS011;4950;46.042;14.472;2023-05-20T14:15:24;11.13;;;6.53;;
9821;SDS011;4950;46.042;14.472;2023-05-20T14:17:54;9.45;;;7.20;;
9821;SDS011;4950;46.042;14.472;2023-05-20T14:20:21;15.95;;;10.00;;
9821;SDS011;4950;46.042;14.472;2023-05-20T14:22:47;11.75;;;8.60;;
9821;SDS011;4950;46.042;14.472;2023-05-20T14:25:14;10.35;;;7.75;;
9821;SDS011;4950;46.042;14.472;2023-05-20T14:27:41;12.07;;;9.10;;
9821;SDS011;4950;46.042;14.472;2023-05-20T14:30:10;11.75;;;8.68;;
9821;SDS011;4950;46.042;14.472;2023-05-20T14:32:37;12.23;;;8.90;;
9821;SDS011;4950;46.042;14.472;2023-05-20T14:35:05;11.23;;;8.65;;
9821;SDS011;4950;46.042;14.472;2023-05-20T14:37:32;13.45;;;8.25;;
9821;SDS011;4950;46.042;14.472;2023-05-20T14:39:59;11.68;;;8.23;;
9821;SDS011;4950;46.042;14.472;2023-05-20T14:42:25;10.90;;;8.68;;
9821;SDS011;4950;46.042;14.472;2023-05-20T14:44:52;14.77;;;9.38;;
9821;SDS011;4950;46.042;14.472;2023-05-20T14:47:20;10.38;;;7.70;;
9821;SDS011;4950;46.042;14.472;2023-05-20T14:49:47;10.65;;;8.80;;